Immagine casuale
Testata Regione Lazio ARSIAL SIARL

Ultima Misura Rilevata

Temperatura, Umidità, Pioggia, Pressione Radiazione Solare, Venti, Evapotraspirazione, ecc.
Temperature diurne e notturne Direzione vento Legenda
Prov Stazione Data TMin TMed TMax UMed Pioggia PMed
FR ALATRI Basciano 24/05/2020 14 20,6 30 59 0 1.021
FR ALVITO Az. Ist. S. Benedetto 24/05/2020 8,8 18,5 27 72 0 1.022
FR ANAGNI La Gloria 24/05/2020 10,9 19,3 29,1 70 0 1.022
FR ARPINO Vigne Piane 24/05/2020 14 19,7 28,7 65 0 1.022
FR BOVILLE ERNICA Sasso 24/05/2020 13,1 20,9 30,6 67 0 1.023
FR CECCANO C.da Passo del Cardinale 24/05/2020 8,4 18,4 28,2 77 0 ----
FR ESPERIA Modale 24/05/2020 9,8 19,5 30,7 71 0 1.022
FR PASTENA Acero 24/05/2020 6,1 17,7 28,8 74 0 1.021
FR PIGLIO Civitella 24/05/2020 11 19,5 29,6 64 0 1.021
FR PONTECORVO Melfi di Sotto 24/05/2020 10 19,6 29,7 76 0 ----
FR S. ELIA FIUMERAPIDO Portella 24/05/2020 12,7 20,1 28,7 71 0 1.023
FR S. GIORGIO A LIRI Porto 24/05/2020 9,9 19,1 29,8 77 0,2 1.021
FR SGURGOLA Campo Lungo 24/05/2020 7,8 19,3 30,1 73 0 ----
FR VALLECORSA Serbatoio comunale 24/05/2020 15 19,2 25,2 62 0 1.022
LT APRILIA Le Ferriere 24/05/2020 11,8 19,2 26,2 78 0 1.022
LT CISTERNA B.go Carso 24/05/2020 9,7 18 24,5 81 0 ----
LT CISTERNA Doganella di Ninfa 24/05/2020 9,8 18,4 26,4 69 0 1.023
LT CORI Portone 24/05/2020 12,8 19,9 27,2 65 0 1.022
LT FONDI Capratica 24/05/2020 10,2 19,2 25,9 82 0 1.024
LT FORMIA Loc. Gianola 24/05/2020 11,3 18,5 24,6 87 0 ----
LT ITRI Valle Quercia 24/05/2020 14,4 19,6 25,1 70 0 1.022
LT MAENZA Casacotta 24/05/2020 12,2 19,5 27,2 70 0 1.020
LT MINTURNO Pulcherini 24/05/2020 16,1 19,7 25 80 0 1.023
LT PONTINIA Cotarda 24/05/2020 10 19,7 27,7 77 0 1.022
LT SABAUDIA Acquaviva 24/05/2020 11 18,9 25,8 82 0 1.023
LT SONNINO Frasso 24/05/2020 15,9 20,9 28 65 0 1.023
RI ACCUMOLI Terracino 24/05/2020 9,5 14,3 21 71 0 1.024
RI BORGOVELINO Ponte Basso 24/05/2020 8,1 18,8 28,4 66 0 1.025
RI CANTALUPO S. Francesco 24/05/2020 11,8 19,6 27,4 69 0 ----
RI CASTEL DI TORA Monte di Tora 24/05/2020 9,5 18,4 27,9 68 0 1.020
RI CASTELNUOVO FARFA C. Spadone 24/05/2020 12,1 20,9 30,1 63 0 ----
RI CONFIGNI Portella 24/05/2020 13,3 20,1 27 59 0 1.022
RI FARA SABINA Canneto 24/05/2020 14,5 21,6 29,8 57 0 1.022
RI FARA SABINA Sant'Andrea 24/05/2020 14,1 21,4 29,4 59 0 ----
RI MONTELEONE S. Prato Camino 24/05/2020 12,3 19,6 29,3 64 0 1.022
RI MONTOPOLI IN SABINA Colle Arcone 24/05/2020 15,4 21,3 28,9 66 0 ----
RI MONTOPOLI IN SABINA Villa Caprola 24/05/2020 12,2 21,2 29,9 77 0 ----
RI POGGIO CATINO Pastine 24/05/2020 15,8 21,1 27,7 58 0 ----
RI POGGIO NATIVO Casali 24/05/2020 15,1 20,1 26,3 66 0 ----
RI RIETI Piana di Rieti 24/05/2020 10,7 20,6 30,7 58 0 1.024
RI SCANDRIGLIA Ponticelli 24/05/2020 13,7 20 27,2 67 0 ----
RM AGOSTA La Cisterna 24/05/2020 10 18,6 28,7 70 0 1.027
RM BRACCIANO Prato Pianciano 24/05/2020 12,8 19,8 29,1 75 0 1.024
RM CANALE MONTERANO Monte Virginio 24/05/2020 11,2 18,9 28,4 77 0 1.022
RM CERVETERI Campo di Mare 24/05/2020 17,3 23 32 78 0 ----
RM CIVITELLA S.PAOLO Le Cese 24/05/2020 13,8 20,7 29,9 64 0 1.026
RM FIUMICINO Maccarese 24/05/2020 13,4 20,3 26,9 80 0 1.022
RM FIUMICINO Testa di Lepre 24/05/2020 15,6 21 28,7 68 0 ----
RM FORMELLO Perazzeta 24/05/2020 13,6 20,5 27,9 67 0 ----
RM FRASCATI Prata Porci 24/05/2020 11,9 21 29,7 57 0 1.024
RM GENAZZANO Coop. La Sonnina 24/05/2020 11,4 18,9 27 67 0 1.024
RM GROTTAFERRATA Valle Marciana 24/05/2020 13,3 20,7 28 58 0 1.022
RM LADISPOLI Palo Laziale 24/05/2020 15,7 19,7 23,4 84 0 1.023
RM LICENZA Colle Franco 24/05/2020 9,8 18,7 29 69 0 1.024
RM MARCELLINA V. Campetella 24/05/2020 13,3 21,1 29,2 66 0 ----
RM MARINO Gotto d'Oro 24/05/2020 15,9 21,1 27,4 60 0 1.023
RM MONTECOMPATRI Colle Mattia 24/05/2020 12,3 20,8 29,5 61 0 1.023
RM MONTECOMPATRI Pantano Borghese 24/05/2020 9,3 20,5 30,3 68 0 1.022
RM MONTELIBRETTI Bruciati 24/05/2020 10,9 20,8 30,4 65 0 ----
RM MONTEPORZIO Camaldoli 24/05/2020 12,3 18 25,3 68 0 1.023
RM MONTEROTONDO Grotta Marozza 24/05/2020 11,8 20,8 30,3 66 0 1.022
RM PALOMBARA Fonte Grande 24/05/2020 10,9 20,1 29,4 66 0 ----
RM ROMA Capocotta 24/05/2020 N.D. N.D. N.D. N.D. N.D. ----
RM ROMA Ponte di Nona 24/05/2020 13,9 22 29,7 64 0 1.022
RM ROMA Via Lanciani 38 24/05/2020 17,2 22 27,5 61 0 1.021
RM S. GREGORIO C. Faustiniano 24/05/2020 15,1 21 30,3 55 0 1.020
RM VELLETRI Cantina Sperimentale 24/05/2020 11,9 19,1 27,5 67 0 1.021
RM VELLETRI Prato Lungo 24/05/2020 11,4 19,1 26 68 0 ----
RM ZAGAROLO Santa Apollara 24/05/2020 15,2 20,9 28,5 60 0 ----
VT ACQUAPENDENTE Falconiera 24/05/2020 10,7 18,8 29 72 0 1.027
VT BAGNOREGIO Castell Cellesi 24/05/2020 13 19,4 26,3 66 0 ----
VT BASSANO R. Piano Mola 24/05/2020 12,2 18,4 27,7 80 0 1.022
VT BLERA Puntoni 24/05/2020 14,2 20 26,9 77 0 1.022
VT BOLSENA Capone 24/05/2020 11,5 20,8 33,3 64 0 1.025
VT BOLSENA Rentica 24/05/2020 11,4 19,4 27 66 0 ----
VT CANINO Diga Timone 24/05/2020 12,6 20,1 27,6 75 0 1.026
VT CANINO Pianacce 24/05/2020 15,8 20,8 26,5 70 0 1.022
VT CANINO San Valeriano 24/05/2020 14,3 20,3 26 71 0 ----
VT CELLENO Acquaforte 24/05/2020 11,1 19,4 27 74 0 ----
VT CORCHIANO Pantalone 24/05/2020 11,6 19,8 30,7 74 4,2 1.021
VT FARNESE Gressa 24/05/2020 N.D. N.D. N.D. N.D. N.D. ----
VT FARNESE Pian di Sala 24/05/2020 8 18 26,7 83 0,6 ----
VT GROTTE DI CASTRO Borghetto 24/05/2020 11 19,3 27,1 73 0 1.023
VT GROTTE DI CASTRO Purgatorio 24/05/2020 11 18,7 28,2 73 0 1.021
VT LATERA Centro Florovivaistico 24/05/2020 8,3 18,5 28,3 79 1,4 1.026
VT MONTALTO Le Murelle 24/05/2020 14,7 20 24,2 81 0 1.023
VT MONTALTO Pescia Romana 24/05/2020 15,7 20,6 25,2 75 0 1.022
VT MONTEFIASCONE Commenda 24/05/2020 13 20,6 28,6 70 0 ----
VT RONCIGLIONE Ponterotto 24/05/2020 12,4 19,6 27,1 74 0 ----
VT SORIANO CIMINO Pantane 24/05/2020 11,5 20,3 29,6 71 0 1.024
VT SORIANO CIMINO Poggio di Chia 24/05/2020 13,4 20,1 27 74 0 ----
VT TARQUINIA Portaccia 24/05/2020 15,6 21 26,3 80 0 ----
VT TUSCANIA Montebello 24/05/2020 14,9 20,6 27,7 80 0 ----
VT VETRALLA Marchionato 24/05/2020 14 20,5 27,8 83 0 ----
VT VITERBO Pisello 24/05/2020 13,8 19,9 27,2 72 0 ----
N.D. = Dati Non Disponibili
---- = Sensore non presente

Le misure esposte sono grezze, ovvero non sono state validate.